createdAt,value
2023-05-20T09:53:44.007Z,20.19
2023-05-20T09:56:13.913Z,20.35
2023-05-20T09:58:49.467Z,20.39
2023-05-20T10:01:18.191Z,20.50
2023-05-20T10:03:48.321Z,20.58
2023-05-20T10:06:32.005Z,20.63
2023-05-20T10:09:12.841Z,20.67
2023-05-20T10:11:51.123Z,20.70
2023-05-20T10:14:35.865Z,20.77
2023-05-20T10:17:19.858Z,20.82
2023-05-20T10:19:51.687Z,20.85
2023-05-20T10:22:32.080Z,20.92
2023-05-20T10:25:07.583Z,20.92
2023-05-20T10:27:45.923Z,20.94
2023-05-20T10:30:20.421Z,20.92
2023-05-20T10:32:57.211Z,20.97
2023-05-20T10:35:36.248Z,21.04
2023-05-20T10:38:16.380Z,21.15
2023-05-20T10:41:04.707Z,21.23
2023-05-20T10:46:33.857Z,21.39
2023-05-20T10:52:06.970Z,21.42
2023-05-20T11:11:26.735Z,22.01
2023-05-20T11:19:18.203Z,22.29
2023-05-20T11:21:54.093Z,22.34
2023-05-20T11:24:28.535Z,22.32
2023-05-20T11:27:09.770Z,22.31
2023-05-20T11:29:38.785Z,22.25
2023-05-20T11:32:18.408Z,22.31
2023-05-20T11:34:51.090Z,22.35
2023-05-20T11:37:26.044Z,22.36
2023-05-20T11:49:02.326Z,22.58
2023-05-20T11:51:34.492Z,22.70
2023-05-20T11:54:09.012Z,22.79
2023-05-20T12:07:35.250Z,23.50
2023-05-20T12:10:07.324Z,23.61
2023-05-20T12:12:36.919Z,23.60
2023-05-20T12:15:08.574Z,23.66
2023-05-20T12:17:48.365Z,23.58
2023-05-20T12:23:21.544Z,23.55
2023-05-20T12:35:09.104Z,23.93
2023-05-20T12:37:55.776Z,24.13
